Time,TemperatureF,DewpointF,PressureIn,WindDirection,WindDirectionDegrees,WindSpeedMPH,WindSpeedGustMPH,Humidity,HourlyPrecipIn,Conditions,Clouds,dailyrainin,SoftwareType,DateUTC
2013-06-16 00:01:00,57.3,57.3,26.88,SSW,193,0.0,2.0,100,0.00,,,-99.99,VWS V12.07,2013-06-16 04:01:00,
2013-06-16 00:31:00,57.0,57.0,26.87,SSW,193,0.0,0.0,100,0.00,,,-99.99,VWS V12.07,2013-06-16 04:31:00,
2013-06-16 01:01:00,56.1,56.1,26.87,SSW,193,0.0,0.0,100,0.00,,,-99.99,VWS V12.07,2013-06-16 05:01:00,
2013-06-16 01:31:00,55.5,55.5,26.86,SSW,193,0.0,0.0,100,0.00,,,-99.99,VWS V12.07,2013-06-16 05:31:00,
2013-06-16 02:01:00,55.2,55.2,26.86,SSW,193,2.0,3.0,100,0.00,,,-99.99,VWS V12.07,2013-06-16 06:01:00,
2013-06-16 02:31:00,55.0,55.0,26.86,SSW,193,0.0,0.0,100,0.00,,,-99.99,VWS V12.07,2013-06-16 06:31:00,
2013-06-16 03:01:00,55.2,55.2,26.86,SSW,193,2.0,4.0,100,0.00,,,-99.99,VWS V12.07,2013-06-16 07:01:00,
2013-06-16 03:31:00,54.6,54.6,26.86,SSW,193,0.0,0.0,100,0.00,,,-99.99,VWS V12.07,2013-06-16 07:31:00,
2013-06-16 04:01:00,54.7,54.7,26.86,SSW,193,0.0,0.0,100,0.00,,,-99.99,VWS V12.07,2013-06-16 08:01:00,
2013-06-16 04:31:00,58.2,58.2,26.86,SSW,193,0.0,2.0,100,0.00,,,-99.99,VWS V12.07,2013-06-16 08:31:00,
2013-06-16 05:01:00,60.0,60.0,26.87,SSW,195,0.0,0.0,100,0.00,,,-99.99,VWS V12.07,2013-06-16 09:01:00,
2013-06-16 05:31:00,59.9,59.9,26.88,SSW,195,2.0,5.0,100,0.00,,,-99.99,VWS V12.07,2013-06-16 09:31:00,
2013-06-16 06:01:00,60.7,60.7,26.89,SSW,195,0.0,2.0,100,0.00,,,-99.99,VWS V12.07,2013-06-16 10:01:00,
2013-06-16 06:31:00,62.8,61.7,26.89,South,191,2.0,4.0,96,0.00,,,-99.99,VWS V12.07,2013-06-16 10:31:00,
2013-06-16 07:01:00,64.8,62.4,26.90,SW,215,2.0,8.0,92,0.00,,,-99.99,VWS V12.07,2013-06-16 11:01:00,
2013-06-16 07:31:00,66.2,62.9,26.90,South,182,4.0,9.0,89,0.00,,,-99.99,VWS V12.07,2013-06-16 11:31:00,
2013-06-16 08:01:00,66.7,63.0,26.91,South,190,4.0,6.0,88,0.00,,,-99.99,VWS V12.07,2013-06-16 12:01:00,
2013-06-16 08:31:00,67.2,63.2,26.91,WSW,239,2.0,6.0,87,0.00,,,-99.99,VWS V12.07,2013-06-16 12:31:00,
2013-06-16 09:01:00,69.0,64.3,26.90,South,173,2.0,9.0,85,0.00,,,-99.99,VWS V12.07,2013-06-16 13:01:00,
2013-06-16 09:31:00,70.1,65.1,26.90,SW,223,4.0,11.0,84,0.00,,,-99.99,VWS V12.07,2013-06-16 13:31:00,
2013-06-16 10:01:00,71.2,66.5,26.89,SW,231,5.0,9.0,85,0.00,,,-99.99,VWS V12.07,2013-06-16 14:01:00,
2013-06-16 10:31:00,70.8,65.4,26.90,SW,219,2.0,7.0,83,0.00,,,-99.99,VWS V12.07,2013-06-16 14:31:00,
2013-06-16 11:01:00,71.2,65.8,26.90,South,173,5.0,9.0,83,0.00,,,-99.99,VWS V12.07,2013-06-16 15:01:00,
2013-06-16 11:31:00,71.9,66.8,26.89,SSE,158,7.0,10.0,84,0.00,,,-99.99,VWS V12.07,2013-06-16 15:31:00,
2013-06-16 12:01:00,73.6,66.7,26.88,South,186,4.0,8.0,79,0.00,,,-99.99,VWS V12.07,2013-06-16 16:01:00,
2013-06-16 12:31:00,73.5,65.1,26.87,South,180,2.0,7.0,75,0.00,,,-99.99,VWS V12.07,2013-06-16 16:31:00,
2013-06-16 13:01:00,72.7,65.4,26.87,WSW,242,4.0,5.0,78,0.00,,,-99.99,VWS V12.07,2013-06-16 17:01:00,
2013-06-16 13:31:00,73.2,66.3,26.87,West,269,1.0,4.0,79,0.00,,,-99.99,VWS V12.07,2013-06-16 17:31:00,
2013-06-16 14:01:00,70.3,65.9,26.86,SSE,150,2.0,6.0,86,0.00,,,-99.99,VWS V12.07,2013-06-16 18:01:00,
2013-06-16 14:31:00,70.5,65.8,26.86,South,178,3.0,5.0,85,0.00,,,-99.99,VWS V12.07,2013-06-16 18:31:00,
2013-06-16 15:01:00,71.5,66.1,26.85,SSE,149,3.0,4.0,83,0.00,,,-99.99,VWS V12.07,2013-06-16 19:01:00,
2013-06-16 15:31:00,71.5,65.7,26.85,SE,136,3.0,4.0,82,0.00,,,-99.99,VWS V12.07,2013-06-16 19:31:00,
2013-06-16 16:01:00,72.2,66.4,26.85,ESE,120,2.0,6.0,82,0.00,,,-99.99,VWS V12.07,2013-06-16 20:01:00,
2013-06-16 16:31:00,73.1,68.0,26.84,SSE,166,6.0,8.0,84,0.00,,,-99.99,VWS V12.07,2013-06-16 20:31:00,
2013-06-16 17:01:00,71.8,67.1,26.84,SE,126,1.0,7.0,85,0.00,,,-99.99,VWS V12.07,2013-06-16 21:01:00,
2013-06-16 17:31:00,72.4,67.6,26.84,SE,142,7.0,8.0,85,0.00,,,-99.99,VWS V12.07,2013-06-16 21:31:00,
2013-06-16 18:01:00,71.2,67.5,26.83,SSE,157,6.0,7.0,88,0.00,,,-99.99,VWS V12.07,2013-06-16 22:01:00,
2013-06-16 18:31:00,70.5,66.1,26.84,SSE,154,3.0,7.0,86,0.00,,,-99.99,VWS V12.07,2013-06-16 22:31:00,
2013-06-16 19:01:00,69.3,65.9,26.84,SSE,163,4.0,7.0,89,0.00,,,-99.99,VWS V12.07,2013-06-16 23:01:00,
2013-06-16 19:31:00,68.7,65.7,26.84,SSE,157,2.0,8.0,90,0.00,,,-99.99,VWS V12.07,2013-06-16 23:31:00,
2013-06-16 20:01:00,68.0,65.9,26.84,SSE,162,3.0,5.0,93,0.00,,,-99.99,VWS V12.07,2013-06-17 00:01:00,
2013-06-16 20:31:00,67.7,65.9,26.84,SSE,147,3.0,6.0,94,0.00,,,-99.99,VWS V12.07,2013-06-17 00:31:00,
2013-06-16 21:01:00,66.8,65.0,26.84,South,173,1.0,2.0,94,0.00,,,-99.99,VWS V12.07,2013-06-17 01:01:00,
2013-06-16 21:31:00,66.5,65.6,26.85,South,175,2.0,3.0,97,0.00,,,-99.99,VWS V12.07,2013-06-17 01:31:00,
2013-06-16 22:01:00,66.0,65.1,26.85,South,174,0.0,0.0,97,0.00,,,-99.99,VWS V12.07,2013-06-17 02:01:00,
2013-06-16 22:31:00,65.2,64.9,26.85,South,174,0.0,1.0,99,0.00,,,-99.99,VWS V12.07,2013-06-17 02:31:00,
2013-06-16 23:01:00,65.1,65.1,26.85,South,174,0.0,0.0,100,0.00,,,-99.99,VWS V12.07,2013-06-17 03:01:00,
2013-06-16 23:31:00,64.3,64.3,26.84,South,174,0.0,0.0,100,0.00,,,-99.99,VWS V12.07,2013-06-17 03:31:00,